Madray Springs, Georgia
Current Conditions -  °F | °C
As of 4:15 AM on Wednesday 22 Oct 2014 (Local Time) from KJES Reporting Station
Clear Clear  
Wind Chill: 61°   Ceiling: Unl
Heat Index: 61°   Visibility: 10mi
Dew Point: 54°   Wind: 5mph
Humidity: 77%   Direction: 330°NNW
Pressure: 29.96"   Gusts: NA
Location:  31.5041°N, 81.8277°W
Report Text: KJES 220815Z AUTO 33004KT 10SM CLR 16/12 A2996 RMK AO2
Loading
Personal Weather Stations






























Interactive Weather Map
Tropical Storm Tracking
New forecast layout! Learn more

10-Day Weather Forecast

Advertisements
Track Severe Weather on mobile